createdAt,value
2022-09-23T00:01:22.640Z,50.40
2022-09-23T00:07:46.949Z,50.43
2022-09-23T00:14:11.272Z,50.58
2022-09-23T00:20:35.701Z,50.67
2022-09-23T00:27:00.082Z,50.55
2022-09-23T00:33:24.299Z,50.29
2022-09-23T00:39:48.636Z,50.43
2022-09-23T00:46:12.950Z,50.64
2022-09-23T00:52:40.295Z,50.62
2022-09-23T00:59:04.712Z,50.82
2022-09-23T01:05:28.935Z,50.60
2022-09-23T01:11:55.719Z,50.73
2022-09-23T01:18:21.289Z,50.64
2022-09-23T01:25:06.986Z,50.76
2022-09-23T01:31:46.528Z,50.81
2022-09-23T01:38:19.766Z,51.13
2022-09-23T01:44:46.626Z,51.02
2022-09-23T01:51:16.225Z,51.20
2022-09-23T01:57:46.119Z,51.24
2022-09-23T02:04:28.435Z,51.06
2022-09-23T02:11:01.452Z,51.33
2022-09-23T02:17:28.891Z,51.28
2022-09-23T02:23:55.899Z,51.54
2022-09-23T02:30:27.008Z,51.45
2022-09-23T02:36:54.077Z,51.43
2022-09-23T02:43:18.356Z,51.44
2022-09-23T02:49:45.241Z,51.48
2022-09-23T02:56:09.562Z,51.31
2022-09-23T03:02:38.214Z,51.52
2022-09-23T03:09:11.143Z,51.46
2022-09-23T03:15:50.344Z,51.63
2022-09-23T03:22:17.162Z,51.54
2022-09-23T03:28:41.449Z,51.41
2022-09-23T03:35:05.945Z,51.58
2022-09-23T03:41:33.012Z,51.56
2022-09-23T03:48:00.063Z,51.67
2022-09-23T03:54:24.367Z,51.67
2022-09-23T04:00:48.840Z,51.42
2022-09-23T04:07:13.291Z,51.73
2022-09-23T04:13:37.612Z,51.47
2022-09-23T04:20:01.919Z,51.41
2022-09-23T04:26:28.748Z,51.75
2022-09-23T04:32:52.988Z,51.83
2022-09-23T04:39:17.322Z,51.58
2022-09-23T04:45:33.736Z,51.62
2022-09-23T04:52:13.216Z,51.40
2022-09-23T04:58:37.499Z,51.38
2022-09-23T05:05:01.823Z,51.11
2022-09-23T05:11:25.772Z,50.93
2022-09-23T05:17:50.057Z,50.64
2022-09-23T05:24:14.312Z,50.57
2022-09-23T05:30:38.638Z,50.54
2022-09-23T05:37:03.108Z,50.11
2022-09-23T05:43:27.813Z,50.13
2022-09-23T05:50:00.488Z,50.21
2022-09-23T05:56:25.120Z,50.41
2022-09-23T06:02:49.348Z,50.48
2022-09-23T06:09:13.625Z,50.46
2022-09-23T06:15:37.853Z,50.13
2022-09-23T06:22:02.275Z,50.20
2022-09-23T06:28:35.347Z,50.61
2022-09-23T06:34:59.580Z,50.66
2022-09-23T06:41:23.777Z,51.24
2022-09-23T06:47:47.971Z,51.26
2022-09-23T06:54:12.272Z,51.49
2022-09-23T07:00:36.481Z,51.33
2022-09-23T07:07:00.722Z,51.53
2022-09-23T07:13:25.050Z,51.44
2022-09-23T07:19:49.361Z,51.30
2022-09-23T07:26:13.735Z,51.49
2022-09-23T07:32:47.245Z,50.88
2022-09-23T07:39:12.768Z,50.70
2022-09-23T07:45:37.113Z,50.67
2022-09-23T07:52:04.583Z,49.96
2022-09-23T07:58:28.847Z,49.26
2022-09-23T08:04:53.152Z,48.04
2022-09-23T08:11:17.477Z,49.01
2022-09-23T08:17:41.753Z,49.71
2022-09-23T08:24:06.114Z,49.49
2022-09-23T08:30:30.831Z,49.34
2022-09-23T08:36:55.097Z,48.96
2022-09-23T08:43:19.304Z,48.67
2022-09-23T08:49:46.429Z,48.23
2022-09-23T08:55:51.189Z,48.07
2022-09-23T09:02:33.554Z,47.84
2022-09-23T09:08:57.888Z,47.11
2022-09-23T09:15:31.310Z,47.04
2022-09-23T09:22:07.820Z,47.20
2022-09-23T09:28:32.554Z,47.00
2022-09-23T09:35:05.803Z,46.86
2022-09-23T09:41:29.991Z,47.00
2022-09-23T09:47:55.962Z,46.88
2022-09-23T09:54:20.202Z,46.75
2022-09-23T10:01:02.488Z,46.66
2022-09-23T10:07:26.819Z,46.50
2022-09-23T10:13:56.951Z,46.48
2022-09-23T10:20:27.338Z,46.27
2022-09-23T10:27:06.479Z,46.28
2022-09-23T10:33:36.740Z,46.01
2022-09-23T10:39:59.306Z,44.83
2022-09-23T10:46:27.857Z,43.59
2022-09-23T10:53:07.091Z,41.92
2022-09-23T10:59:40.311Z,40.43
2022-09-23T11:06:06.153Z,39.59
2022-09-23T11:12:31.876Z,38.22
2022-09-23T11:19:20.503Z,37.92
2022-09-23T11:25:46.130Z,37.79
2022-09-23T11:32:13.313Z,37.28
2022-09-23T11:38:52.898Z,36.01
2022-09-23T11:45:25.010Z,35.50
2022-09-23T11:51:51.955Z,35.57
2022-09-23T11:58:24.337Z,34.38
2022-09-23T12:04:57.323Z,33.78
2022-09-23T12:11:21.347Z,33.90
2022-09-23T12:17:51.379Z,33.88
2022-09-23T12:24:27.899Z,33.71
2022-09-23T12:31:01.572Z,33.91
2022-09-23T12:37:25.948Z,34.31
2022-09-23T12:43:58.995Z,33.37
2022-09-23T12:50:26.133Z,33.01
2022-09-23T12:56:59.667Z,31.52
2022-09-23T13:03:28.397Z,31.08
2022-09-23T13:09:58.585Z,31.70
2022-09-23T13:16:28.915Z,30.85
2022-09-23T13:22:59.484Z,29.39
2022-09-23T13:29:35.969Z,29.31
2022-09-23T13:36:12.205Z,29.01
2022-09-23T13:42:36.589Z,29.78
2022-09-23T13:49:07.047Z,30.09
2022-09-23T13:55:32.241Z,28.25
2022-09-23T14:02:02.768Z,28.43
2022-09-23T14:08:27.039Z,27.89
2022-09-23T14:14:54.013Z,28.05
2022-09-23T14:21:27.151Z,29.05
2022-09-23T14:27:58.499Z,30.20
2022-09-23T14:34:24.650Z,30.71
2022-09-23T14:40:49.418Z,31.69
2022-09-23T14:47:13.878Z,32.53
2022-09-23T14:53:44.033Z,33.41
2022-09-23T15:00:14.099Z,33.85
2022-09-23T15:06:44.228Z,34.49
2022-09-23T15:13:14.491Z,35.09
2022-09-23T15:19:47.286Z,35.63
2022-09-23T15:26:20.623Z,35.98
2022-09-23T15:32:44.901Z,36.27
2022-09-23T15:39:09.223Z,36.75
2022-09-23T15:45:33.603Z,37.40
2022-09-23T15:51:57.938Z,37.42
2022-09-23T15:58:22.136Z,38.10
2022-09-23T16:04:46.455Z,38.55
2022-09-23T16:11:10.801Z,38.83
2022-09-23T16:17:35.016Z,39.30
2022-09-23T16:23:56.065Z,40.01
2022-09-23T16:30:21.008Z,40.27
2022-09-23T16:36:48.345Z,40.75
2022-09-23T16:43:12.730Z,41.19
2022-09-23T16:49:37.039Z,41.62
2022-09-23T16:56:01.383Z,41.90
2022-09-23T17:02:24.300Z,41.99
2022-09-23T17:08:48.741Z,42.21
2022-09-23T17:15:12.768Z,42.60
2022-09-23T17:21:37.061Z,42.54
2022-09-23T17:28:01.272Z,42.36
2022-09-23T17:34:25.914Z,42.54
2022-09-23T17:40:50.380Z,42.23
2022-09-23T17:47:14.849Z,42.05
2022-09-23T17:53:39.122Z,41.70
2022-09-23T18:00:03.807Z,41.79
2022-09-23T18:06:28.081Z,41.50
2022-09-23T18:12:52.310Z,41.48
2022-09-23T18:19:16.583Z,41.98
2022-09-23T18:25:40.930Z,42.07
2022-09-23T18:32:05.275Z,42.27
2022-09-23T18:38:29.596Z,42.56
2022-09-23T18:44:54.065Z,42.77
2022-09-23T18:51:18.308Z,42.84
2022-09-23T18:57:42.658Z,43.20
2022-09-23T19:04:06.972Z,43.05
2022-09-23T19:10:31.336Z,43.16
2022-09-23T19:16:55.562Z,43.46
2022-09-23T19:23:20.216Z,43.16
2022-09-23T19:29:50.357Z,43.47
2022-09-23T19:36:14.669Z,43.49
2022-09-23T19:42:39.021Z,43.73
2022-09-23T19:49:03.280Z,43.61
2022-09-23T19:55:27.710Z,43.87
2022-09-23T20:01:52.082Z,43.80
2022-09-23T20:08:16.422Z,43.76
2022-09-23T20:14:40.640Z,43.75
2022-09-23T20:21:05.479Z,43.99
2022-09-23T20:27:29.762Z,44.09
2022-09-23T20:33:46.767Z,44.10
2022-09-23T20:40:11.070Z,43.99
2022-09-23T20:46:38.230Z,44.37
2022-09-23T20:53:02.601Z,44.17
2022-09-23T20:59:26.889Z,44.36
2022-09-23T21:05:51.864Z,44.39
2022-09-23T21:12:16.150Z,44.32
2022-09-23T21:18:40.319Z,44.50
2022-09-23T21:25:26.982Z,44.58
2022-09-23T21:31:48.987Z,44.78
2022-09-23T21:38:13.352Z,44.98
2022-09-23T21:44:38.006Z,45.15
2022-09-23T21:51:02.234Z,45.09
2022-09-23T21:57:26.704Z,45.13
2022-09-23T22:03:52.045Z,45.19
2022-09-23T22:10:16.370Z,45.14
2022-09-23T22:16:40.725Z,45.41
2022-09-23T22:23:08.266Z,45.30
2022-09-23T22:29:31.203Z,45.42
2022-09-23T22:35:55.534Z,45.48
2022-09-23T22:42:18.775Z,45.44
2022-09-23T22:48:43.128Z,45.79
2022-09-23T22:55:09.986Z,45.57
2022-09-23T23:01:36.997Z,45.62
2022-09-23T23:08:01.316Z,45.73
2022-09-23T23:14:25.594Z,45.90
2022-09-23T23:20:42.451Z,45.87
2022-09-23T23:27:09.497Z,45.82
2022-09-23T23:33:33.722Z,45.91
2022-09-23T23:39:58.046Z,45.67
2022-09-23T23:46:22.358Z,45.87
2022-09-23T23:52:46.626Z,45.83
2022-09-23T23:59:10.886Z,46.03
